Terminal Aerodrome Forecast
Issued by NWS

Home | Current Version | Previous Version | Text Only | Print | Product List | Glossary On
Versions: 1 2 3 4 5 6 7 8 9 10 11 12 13 14 15 16 17 18 19 20 21 22 23 24 25 26
000
FTUS43 KDLH 010540
TAFHIB
TAF
KHIB 010540Z 0106/0206 VRB03KT 6SM HZ BR BKN040
      TEMPO 0107/0108 6SM -SHRA
     FM011100 00000KT 2SM BR SCT012 BKN100
      TEMPO 0111/0112 00000KT 3/4SM BR BKN004 BKN100
     FM011600 23008KT P6SM FEW050
     FM020000 19003KT P6SM SCT120=

USA.gov is the U.S. government's official web portal to all federal, state and local government web resources and services.